Terminal Aerodrome Forecast
Issued by NWS

Home | Current Version | Previous Version | Graphics & Text | Print | Product List | Glossary On
Versions: 1 2 3 4 5 6 7 8 9 10 11 12 13 14 15 16 17
000
FTUS43 KGRB 180900 AAA
TAFMTW
TAF AMD
KMTW 180941Z 1810/1906 33008KT P6SM OVC015
     FM181700 34005KT P6SM BKN020
     FM181900 36004KT P6SM SCT025
     FM190100 35002KT P6SM SKC=

USA.gov is the U.S. government's official web portal to all federal, state and local government web resources and services.